| time (UTC) | temp C | wind direction | speed KPH | gust KPH | rain 1hr cm | rain 24hr cm | rain mn cm | humidity % | barometer mb |
| 20260510190016 | 13 | 245 | 1.6 | 9.7 | 0.00 | 0.00 | 0.00 | 69 | 1009.8 |
| 20260510184515 | 13 | 280 | 3.2 | 16.1 | 0.00 | 0.00 | 0.00 | 66 | 1009.7 |
| 20260510183015 | 14 | 248 | 4.8 | 16.1 | 0.00 | 0.00 | 0.00 | 64 | 1009.4 |
| 20260510181514 | 15 | 236 | 6.4 | 20.9 | 0.00 | 0.00 | 0.00 | 63 | 1009.4 |
| 20260510180015 | 15 | 212 | 3.2 | 19.3 | 0.00 | 0.00 | 0.00 | 62 | 1009.3 |
| 20260510174514 | 15 | 238 | 1.6 | 20.9 | 0.00 | 0.00 | 0.00 | 63 | 1009.2 |
| 20260510173013 | 15 | 303 | 4.8 | 19.3 | 0.00 | 0.00 | 0.00 | 62 | 1009.1 |
| 20260510171512 | 15 | 229 | 3.2 | 25.7 | 0.00 | 0.00 | 0.00 | 62 | 1009.0 |
| 20260510170011 | 15 | 285 | 4.8 | 22.5 | 0.00 | 0.00 | 0.00 | 64 | 1009.0 |
| 20260510164510 | 14 | 300 | 6.4 | 25.7 | 0.00 | 0.00 | 0.00 | 64 | 1009.1 |
| 20260510163011 | 14 | 259 | 9.7 | 22.5 | 0.00 | 0.00 | 0.00 | 62 | 1009.4 |
| 20260510161511 | 15 | 200 | 6.4 | 19.3 | 0.00 | 0.00 | 0.00 | 61 | 1009.1 |
| 20260510160007 | 15 | 264 | 6.4 | 24.1 | 0.00 | 0.00 | 0.00 | 62 | 1009.0 |
| 20260510154506 | 15 | 281 | 9.7 | 24.1 | 0.00 | 0.00 | 0.00 | 63 | 1009.0 |
| 20260510153004 | 15 | 242 | 9.7 | 29.0 | 0.00 | 0.00 | 0.00 | 64 | 1009.3 |
| 20260510151600 | 14 | 238 | 9.7 | 32.2 | 0.00 | 0.00 | 0.00 | 64 | 1009.4 |
| 20260510150057 | 14 | 293 | 4.8 | 19.3 | 0.00 | 0.00 | 0.00 | 70 | 1009.6 |
| 20260510144609 | 13 | 188 | 9.7 | 22.5 | 0.00 | 0.00 | 0.00 | 71 | 1009.8 |
| 20260510143106 | 12 | 250 | 6.4 | 25.7 | 0.00 | 0.00 | 0.00 | 77 | 1010.2 |
| 20260510141551 | 12 | 219 | 4.8 | 20.9 | 0.00 | 0.00 | 0.00 | 78 | 1010.1 |
| 20260510140049 | 12 | 165 | 8.0 | 24.1 | 0.00 | 0.00 | 0.00 | 79 | 1010.3 |
| 20260510134604 | 13 | 237 | 6.4 | 17.7 | 0.00 | 0.00 | 0.00 | 81 | 1009.8 |
| 20260510133047 | 12 | 206 | 3.2 | 16.1 | 0.00 | 0.00 | 0.00 | 84 | 1010.0 |
| 20260510131547 | 12 | 252 | 4.8 | 12.9 | 0.00 | 0.00 | 0.00 | 89 | 1009.7 |
| 20260510130047 | 11 | 217 | 3.2 | 14.5 | 0.00 | 0.00 | 0.00 | 90 | 1009.9 |
| 20260510124554 | 11 | 161 | 3.2 | 17.7 | 0.00 | 0.00 | 0.00 | 88 | 1010.0 |
| 20260510123044 | 11 | 275 | 3.2 | 19.3 | 0.00 | 0.00 | 0.00 | 91 | 1009.9 |
| 20260510121544 | 11 | 226 | 6.4 | 14.5 | 0.00 | 0.00 | 0.00 | 92 | 1009.7 |
| 20260510120044 | 11 | 319 | 6.4 | 16.1 | 0.00 | 0.00 | 0.00 | 93 | 1010.1 |
| 20260510114543 | 10 | 226 | 1.6 | 14.5 | 0.00 | 0.00 | 0.00 | 93 | 1010.2 |
| 20260510113042 | 10 | 257 | 6.4 | 22.5 | 0.00 | 0.00 | 0.00 | 91 | 1010.2 |
| 20260510111554 | 11 | 243 | 4.8 | 25.7 | 0.00 | 0.00 | 0.00 | 92 | 1010.1 |
| 20260510110045 | 11 | 303 | 3.2 | 19.3 | 0.00 | 0.00 | 0.00 | 94 | 1009.8 |
| 20260510104551 | 10 | 271 | 3.2 | 17.7 | 0.00 | 0.00 | 0.00 | 93 | 1010.1 |
| 20260510103038 | 10 | 295 | 14.5 | 30.6 | 0.00 | 0.00 | 0.00 | 88 | 1010.1 |
| 20260510101538 | 13 | 193 | 3.2 | 20.9 | 0.00 | 0.00 | 0.00 | 80 | 1009.2 |
| 20260510100137 | 13 | 162 | 6.4 | 19.3 | 0.00 | 0.00 | 0.00 | 79 | 1009.3 |
| 20260510094539 | 13 | 244 | 3.2 | 17.7 | 0.00 | 0.00 | 0.00 | 82 | 1009.5 |
| 20260510093033 | 13 | 64 | 3.2 | 16.1 | 0.00 | 0.00 | 0.00 | 83 | 1009.6 |
| 20260510091533 | 13 | 193 | 3.2 | 22.5 | 0.00 | 0.00 | 0.00 | 82 | 1009.8 |
| 20260510090029 | 12 | 287 | 4.8 | 14.5 | 0.00 | 0.00 | 0.00 | 87 | 1009.9 |
| 20260510084524 | 12 | 181 | 3.2 | 17.7 | 0.00 | 0.00 | 0.00 | 91 | 1010.1 |
| 20260510083022 | 11 | 217 | 3.2 | 20.9 | 0.00 | 0.00 | 0.00 | 93 | 1010.2 |
| 20260510081519 | 11 | 207 | 1.6 | 12.9 | 0.00 | 0.00 | 0.00 | 96 | 1010.1 |
| 20260510080018 | 11 | 245 | 4.8 | 14.5 | 0.00 | 0.00 | 0.00 | 96 | 1010.3 |
| 20260510074516 | 10 | 142 | 1.6 | 6.4 | 0.00 | 0.00 | 0.00 | 96 | 1010.4 |
| 20260510073012 | 10 | 110 | 0.0 | 0.0 | 0.00 | 0.00 | 0.00 | 96 | 1010.4 |
| 20260510071513 | 10 | 131 | 0.0 | 0.0 | 0.00 | 0.00 | 0.00 | 96 | 1010.3 |
| 20260510070009 | 10 | 131 | 0.0 | 1.6 | 0.00 | 0.00 | 0.00 | 96 | 1010.3 |
| 20260510064507 | 9 | 136 | 0.0 | 0.0 | 0.00 | 0.00 | 0.00 | 96 | 1010.3 |
| 20260510063005 | 9 | 136 | 0.0 | 0.0 | 0.00 | 0.00 | 0.00 | 96 | 1010.2 |
| 20260510061505 | 9 | 145 | 0.0 | 0.0 | 0.00 | 0.00 | 0.00 | 96 | 1010.3 |
| 20260510060006 | 8 | 145 | 0.0 | 0.0 | 0.00 | 0.00 | 0.00 | 96 | 1009.9 |
| 20260510054504 | 8 | 134 | 0.0 | 0.0 | 0.00 | 0.00 | 0.00 | 96 | 1010.0 |
| 20260510053002 | 8 | 134 | 0.0 | 0.0 | 0.00 | 0.00 | 0.00 | 96 | 1010.0 |
| 20260510051502 | 8 | 134 | 0.0 | 0.0 | 0.00 | 0.00 | 0.00 | 96 | 1009.8 |
| 20260510050002 | 8 | 134 | 0.0 | 0.0 | 0.00 | 0.00 | 0.00 | 96 | 1009.9 |
| 20260510044501 | 8 | 266 | 0.0 | 0.0 | 0.00 | 0.00 | 0.00 | 96 | 1010.0 |
| 20260510043144 | 8 | 266 | 0.0 | 0.0 | 0.00 | 0.00 | 0.00 | 96 | 1010.0 |
| 20260510041559 | 8 | 300 | 0.0 | 3.2 | 0.00 | 0.00 | 0.00 | 96 | 1010.0 |
| 20260510040059 | 8 | 191 | 0.0 | 0.0 | 0.00 | 0.00 | 0.00 | 96 | 1010.0 |
| 20260510034558 | 8 | 191 | 0.0 | 0.0 | 0.00 | 0.00 | 0.00 | 96 | 1009.9 |
| 20260510033057 | 8 | 191 | 0.0 | 0.0 | 0.00 | 0.00 | 0.00 | 96 | 1010.1 |
| 20260510031626 | 8 | 195 | 0.0 | 3.2 | 0.00 | 0.00 | 0.00 | 96 | 1010.2 |
| 20260510030054 | 8 | 201 | 0.0 | 0.0 | 0.00 | 0.00 | 0.00 | 95 | 1010.3 |
| 20260510024552 | 8 | 241 | 0.0 | 3.2 | 0.00 | 0.00 | 0.00 | 95 | 1010.4 |
| 20260510023058 | 9 | 210 | 0.0 | 3.2 | 0.00 | 0.00 | 0.00 | 95 | 1010.5 |
| 20260510021550 | 9 | 238 | 0.0 | 3.2 | 0.00 | 0.00 | 0.00 | 96 | 1010.5 |
| 20260510020049 | 9 | 288 | 0.0 | 1.6 | 0.00 | 0.00 | 0.00 | 95 | 1010.4 |
| 20260510014545 | 9 | 245 | 0.0 | 3.2 | 0.00 | 0.00 | 0.00 | 95 | 1010.4 |
| 20260510013041 | 9 | 261 | 0.0 | 6.4 | 0.00 | 0.00 | 0.00 | 95 | 1010.4 |
| 20260510011545 | 9 | 235 | 0.0 | 6.4 | 0.00 | 0.00 | 0.00 | 95 | 1010.5 |
| 20260510010034 | 9 | 234 | 0.0 | 4.8 | 0.00 | 0.00 | 0.00 | 95 | 1010.6 |
| 20260510004532 | 9 | 260 | 1.6 | 8.0 | 0.00 | 0.00 | 0.00 | 95 | 1010.6 |
| 20260510003028 | 9 | 285 | 1.6 | 4.8 | 0.00 | 0.00 | 0.00 | 95 | 1010.6 |
| 20260510001526 | 9 | 250 | 0.0 | 9.7 | 0.00 | 0.00 | 0.00 | 95 | 1010.7 |
| 20260510000026 | 9 | 286 | 1.6 | 9.7 | 0.00 | 0.00 | 0.00 | 95 | 1010.7 |
| 20260509234525 | 9 | 219 | 1.6 | 11.3 | 0.00 | 0.00 | 0.00 | 95 | 1010.7 |
| 20260509233023 | 9 | 238 | 0.0 | 4.8 | 0.00 | 0.00 | 0.00 | 95 | 1010.8 |
| 20260509231522 | 9 | 252 | 0.0 | 4.8 | 0.00 | 0.00 | 0.00 | 95 | 1010.8 |
| 20260509230021 | 9 | 345 | 3.2 | 11.3 | 0.00 | 0.00 | 0.00 | 94 | 1010.7 |
| 20260509224520 | 9 | 258 | 3.2 | 11.3 | 0.00 | 0.00 | 0.00 | 94 | 1010.5 |
| 20260509223022 | 9 | 309 | 3.2 | 14.5 | 0.00 | 0.00 | 0.00 | 94 | 1010.5 |
| 20260509221515 | 9 | 272 | 1.6 | 6.4 | 0.00 | 0.00 | 0.00 | 94 | 1010.4 |
| 20260509220011 | 10 | 229 | 0.0 | 9.7 | 0.00 | 0.00 | 0.00 | 94 | 1010.2 |
| 20260509214509 | 10 | 254 | 0.0 | 9.7 | 0.00 | 0.00 | 0.00 | 94 | 1009.8 |
| 20260509213008 | 10 | 274 | 4.8 | 11.3 | 0.00 | 0.00 | 0.00 | 93 | 1009.6 |
| 20260509211507 | 10 | 284 | 1.6 | 16.1 | 0.00 | 0.00 | 0.00 | 93 | 1009.8 |
| 20260509210004 | 10 | 295 | 6.4 | 22.5 | 0.00 | 0.00 | 0.00 | 92 | 1009.6 |
| 20260509204504 | 10 | 276 | 8.0 | 25.7 | 0.00 | 0.00 | 0.00 | 90 | 1009.5 |
| 20260509203001 | 12 | 124 | 0.0 | 1.6 | 0.00 | 0.00 | 0.00 | 86 | 1008.0 |
| 20260509201501 | 12 | 153 | 1.6 | 8.0 | 0.00 | 0.00 | 0.00 | 85 | 1007.7 |
| 20260509200104 | 12 | 324 | 0.0 | 14.5 | 0.00 | 0.00 | 0.00 | 85 | 1007.5 |
| 20260509194601 | 12 | 258 | 1.6 | 8.0 | 0.00 | 0.00 | 0.00 | 84 | 1007.5 |
| 20260509193058 | 12 | 171 | 0.0 | 0.0 | 0.00 | 0.00 | 0.00 | 88 | 1007.1 |
| 20260509191600 | 12 | 171 | 0.0 | 3.2 | 0.00 | 0.00 | 0.00 | 87 | 1006.9 |